createdAt,value
2023-03-26T00:01:17.856Z,3.30
2023-03-26T00:03:47.404Z,3.10
2023-03-26T00:06:17.278Z,3.20
2023-03-26T00:08:45.858Z,3.53
2023-03-26T00:11:14.858Z,3.60
2023-03-26T00:13:44.047Z,3.93
2023-03-26T00:16:16.125Z,3.80
2023-03-26T00:18:43.786Z,3.70
2023-03-26T00:21:16.020Z,3.70
2023-03-26T00:23:43.354Z,2.63
2023-03-26T00:26:11.019Z,3.77
2023-03-26T00:28:40.689Z,3.80
2023-03-26T00:31:10.248Z,3.87
2023-03-26T00:33:40.925Z,3.50
2023-03-26T00:36:16.869Z,3.50
2023-03-26T00:38:45.133Z,3.40
2023-03-26T00:41:39.946Z,3.90
2023-03-26T00:44:06.623Z,3.70
2023-03-26T00:46:33.316Z,3.73
2023-03-26T00:49:00.716Z,3.97
2023-03-26T00:51:28.645Z,3.70
2023-03-26T00:53:56.293Z,3.70
2023-03-26T00:56:23.064Z,4.43
2023-03-26T00:58:53.087Z,4.17
2023-03-26T01:01:28.454Z,4.33
2023-03-26T01:04:08.205Z,4.50
2023-03-26T01:06:38.899Z,3.73
2023-03-26T01:09:14.581Z,3.80
2023-03-26T01:11:41.262Z,4.03
2023-03-26T01:14:26.986Z,4.97
2023-03-26T01:16:55.792Z,3.80
2023-03-26T01:19:41.317Z,3.53
2023-03-26T01:22:11.312Z,3.83
2023-03-26T01:24:39.289Z,4.17
2023-03-26T01:27:09.762Z,3.90
2023-03-26T01:29:37.733Z,4.37
2023-03-26T01:32:19.104Z,4.33
2023-03-26T01:35:12.586Z,3.63
2023-03-26T01:38:01.166Z,4.00
2023-03-26T01:40:43.161Z,4.03
2023-03-26T01:43:26.215Z,3.97
2023-03-26T01:45:53.780Z,3.93
2023-03-26T01:48:20.921Z,3.17
2023-03-26T01:50:49.191Z,4.70
2023-03-26T01:53:16.089Z,4.13
2023-03-26T01:56:47.788Z,3.60
2023-03-26T01:59:36.880Z,3.97
2023-03-26T02:02:26.819Z,4.10
2023-03-26T02:05:09.798Z,3.47
2023-03-26T02:07:51.316Z,3.43
2023-03-26T02:10:24.939Z,3.10
2023-03-26T02:12:51.964Z,3.13
2023-03-26T02:15:18.938Z,3.53
2023-03-26T02:17:47.183Z,3.53
2023-03-26T02:20:15.485Z,3.70
2023-03-26T02:22:46.101Z,4.30
2023-03-26T02:25:21.307Z,4.60
2023-03-26T02:27:49.809Z,3.83
2023-03-26T02:30:20.159Z,3.70
2023-03-26T02:32:46.879Z,4.27
2023-03-26T02:35:13.885Z,4.00
2023-03-26T02:37:42.273Z,3.67
2023-03-26T02:40:11.898Z,4.13
2023-03-26T02:42:39.335Z,4.20
2023-03-26T02:45:06.937Z,3.87
2023-03-26T02:47:33.974Z,3.20
2023-03-26T02:50:01.636Z,3.50
2023-03-26T02:52:28.338Z,3.53
2023-03-26T02:54:55.012Z,3.17
2023-03-26T02:57:22.570Z,3.37
2023-03-26T02:59:50.520Z,3.33
2023-03-26T03:02:18.495Z,3.37
2023-03-26T03:04:45.458Z,3.83
2023-03-26T03:07:14.657Z,3.53
2023-03-26T03:09:41.740Z,3.50
2023-03-26T03:12:08.521Z,3.67
2023-03-26T03:14:35.864Z,4.57
2023-03-26T03:17:02.723Z,3.10
2023-03-26T03:19:29.436Z,4.17
2023-03-26T03:21:56.394Z,3.60
2023-03-26T03:24:23.646Z,3.50
2023-03-26T03:26:50.519Z,3.90
2023-03-26T03:29:17.590Z,3.60
2023-03-26T03:31:44.324Z,3.63
2023-03-26T03:34:11.108Z,4.43
2023-03-26T03:36:38.708Z,3.90
2023-03-26T03:39:05.441Z,4.50
2023-03-26T03:41:32.219Z,4.20
2023-03-26T03:44:00.018Z,3.90
2023-03-26T03:46:26.859Z,3.93
2023-03-26T03:48:53.572Z,3.60
2023-03-26T03:51:20.439Z,3.60
2023-03-26T03:53:47.659Z,3.63
2023-03-26T03:56:14.950Z,3.23
2023-03-26T03:58:42.429Z,3.90
2023-03-26T04:01:09.285Z,3.40
2023-03-26T04:03:39.043Z,3.30
2023-03-26T04:06:11.258Z,3.77
2023-03-26T04:08:38.270Z,3.40
2023-03-26T04:11:05.206Z,3.40
2023-03-26T04:13:31.891Z,3.17
2023-03-26T04:15:58.864Z,3.00
2023-03-26T04:18:26.569Z,2.80
2023-03-26T04:20:55.869Z,3.40
2023-03-26T04:23:23.401Z,3.60
2023-03-26T04:25:53.906Z,3.00
2023-03-26T04:28:43.911Z,2.73
2023-03-26T04:31:15.875Z,3.60
2023-03-26T04:33:47.056Z,3.00
2023-03-26T04:36:16.162Z,3.10
2023-03-26T04:38:45.535Z,2.83
2023-03-26T04:41:13.006Z,3.30
2023-03-26T04:43:47.334Z,3.00
2023-03-26T04:46:14.678Z,3.27
2023-03-26T04:48:41.685Z,3.27
2023-03-26T04:51:10.274Z,2.70
2023-03-26T04:53:37.041Z,2.83
2023-03-26T04:56:14.603Z,3.23
2023-03-26T04:58:41.591Z,4.00
2023-03-26T05:01:11.333Z,3.23
2023-03-26T05:03:41.496Z,3.30
2023-03-26T05:06:10.845Z,2.80
2023-03-26T05:08:37.512Z,3.10
2023-03-26T05:11:07.600Z,3.20
2023-03-26T05:13:34.255Z,3.57
2023-03-26T05:16:00.969Z,2.97
2023-03-26T05:18:27.728Z,2.87
2023-03-26T05:20:54.800Z,3.37
2023-03-26T05:23:21.613Z,2.93
2023-03-26T05:25:48.335Z,3.00
2023-03-26T05:28:15.215Z,2.87
2023-03-26T05:30:43.695Z,2.87
2023-03-26T05:33:10.827Z,3.00
2023-03-26T05:35:37.700Z,2.87
2023-03-26T05:38:04.579Z,3.80
2023-03-26T05:40:31.267Z,2.80
2023-03-26T05:42:58.046Z,3.00
2023-03-26T05:45:24.737Z,2.70
2023-03-26T05:47:54.354Z,2.77
2023-03-26T05:50:21.082Z,2.27
2023-03-26T05:52:47.783Z,2.60
2023-03-26T05:55:14.582Z,2.43
2023-03-26T05:57:42.176Z,3.10
2023-03-26T06:00:11.060Z,3.27
2023-03-26T06:02:38.145Z,3.00
2023-03-26T06:05:05.413Z,2.87
2023-03-26T06:07:34.083Z,3.00
2023-03-26T06:10:01.165Z,2.87
2023-03-26T06:12:27.866Z,2.63
2023-03-26T06:14:54.519Z,3.27
2023-03-26T06:17:21.238Z,2.40
2023-03-26T06:19:48.148Z,2.87
2023-03-26T06:22:14.816Z,3.10
2023-03-26T06:24:41.461Z,3.20
2023-03-26T06:27:08.106Z,3.37
2023-03-26T06:29:34.818Z,2.97
2023-03-26T06:32:12.464Z,2.93
2023-03-26T06:34:43.396Z,3.13
2023-03-26T06:37:10.107Z,3.40
2023-03-26T06:39:36.756Z,2.57
2023-03-26T06:42:03.481Z,2.70
2023-03-26T06:44:30.160Z,2.73
2023-03-26T06:46:56.851Z,2.63
2023-03-26T06:49:23.589Z,3.43
2023-03-26T06:51:50.443Z,2.80
2023-03-26T06:54:17.127Z,3.17
2023-03-26T06:56:44.010Z,2.83
2023-03-26T06:59:10.681Z,2.20
2023-03-26T07:01:37.389Z,2.77
2023-03-26T07:04:04.155Z,2.70
2023-03-26T07:06:31.048Z,3.37
2023-03-26T07:08:57.760Z,3.43
2023-03-26T07:11:25.762Z,3.63
2023-03-26T07:13:52.673Z,3.00
2023-03-26T07:16:19.530Z,3.13
2023-03-26T07:18:46.328Z,2.47
2023-03-26T07:21:13.422Z,2.80
2023-03-26T07:23:40.403Z,2.93
2023-03-26T07:26:39.519Z,3.03
2023-03-26T07:29:34.614Z,2.67
2023-03-26T07:32:19.239Z,2.53
2023-03-26T07:34:51.041Z,2.80
2023-03-26T07:37:22.125Z,2.83
2023-03-26T07:40:14.695Z,2.90
2023-03-26T07:43:03.993Z,3.10
2023-03-26T07:45:34.033Z,2.90
2023-03-26T07:48:01.197Z,3.40
2023-03-26T07:50:27.993Z,2.80
2023-03-26T07:52:54.980Z,3.43
2023-03-26T07:55:22.580Z,2.73
2023-03-26T07:58:01.913Z,3.23
2023-03-26T08:00:35.607Z,3.13
2023-03-26T08:03:11.928Z,3.30
2023-03-26T08:06:19.883Z,3.03
2023-03-26T08:08:58.793Z,2.83
2023-03-26T08:11:43.868Z,2.93
2023-03-26T08:14:17.593Z,2.60
2023-03-26T08:17:12.001Z,3.03
2023-03-26T08:19:58.337Z,3.27
2023-03-26T08:22:31.998Z,2.60
2023-03-26T08:25:33.542Z,2.70
2023-03-26T08:28:12.442Z,2.83
2023-03-26T08:30:39.260Z,3.00
2023-03-26T08:33:11.443Z,3.23
2023-03-26T08:35:42.660Z,3.13
2023-03-26T08:38:14.556Z,3.10
2023-03-26T08:41:08.999Z,2.50
2023-03-26T08:43:41.706Z,2.73
2023-03-26T08:46:14.342Z,2.80
2023-03-26T08:49:08.896Z,2.47
2023-03-26T08:52:20.379Z,2.80
2023-03-26T08:55:06.335Z,2.67
2023-03-26T08:57:49.317Z,2.60
2023-03-26T09:00:34.047Z,2.57
2023-03-26T09:03:22.190Z,2.70
2023-03-26T09:06:01.628Z,2.37
2023-03-26T09:08:59.420Z,2.53
2023-03-26T09:11:53.516Z,2.70
2023-03-26T09:14:41.947Z,2.20
2023-03-26T09:17:37.594Z,2.30
2023-03-26T09:20:56.958Z,2.20
2023-03-26T09:23:57.661Z,2.80
2023-03-26T09:26:25.010Z,2.50
2023-03-26T09:29:08.609Z,2.43
2023-03-26T09:31:58.369Z,2.77
2023-03-26T09:34:37.318Z,2.50
2023-03-26T09:37:22.283Z,2.77
2023-03-26T09:40:19.760Z,2.17
2023-03-26T09:42:56.930Z,2.50
2023-03-26T09:45:46.472Z,2.20
2023-03-26T09:48:38.885Z,2.20
2023-03-26T09:51:26.109Z,2.43
2023-03-26T09:54:23.748Z,2.00
2023-03-26T09:57:16.653Z,2.23
2023-03-26T10:00:34.791Z,3.50
2023-03-26T10:03:49.799Z,2.50
2023-03-26T10:06:33.687Z,2.00
2023-03-26T10:09:23.256Z,2.20
2023-03-26T10:11:49.930Z,1.60
2023-03-26T10:14:17.926Z,1.80
2023-03-26T10:17:03.499Z,1.30
2023-03-26T10:19:49.247Z,1.60
2023-03-26T10:22:47.204Z,1.40
2023-03-26T10:25:33.027Z,1.50
2023-03-26T10:28:08.855Z,1.40
2023-03-26T10:31:13.262Z,1.40
2023-03-26T10:34:00.441Z,1.40
2023-03-26T10:36:37.238Z,1.60
2023-03-26T10:39:37.874Z,1.70
2023-03-26T10:42:28.229Z,1.80
2023-03-26T10:45:04.753Z,1.67
2023-03-26T10:48:08.061Z,1.50
2023-03-26T10:50:40.779Z,1.17
2023-03-26T10:53:12.964Z,1.17
2023-03-26T10:55:41.164Z,1.20
2023-03-26T10:58:27.778Z,1.60
2023-03-26T11:01:05.905Z,1.27
2023-03-26T11:03:52.284Z,1.00
2023-03-26T11:06:34.046Z,1.10
2023-03-26T11:09:43.384Z,1.00
2023-03-26T11:12:34.763Z,1.30
2023-03-26T11:15:32.088Z,1.40
2023-03-26T11:18:14.147Z,1.10
2023-03-26T11:20:48.837Z,1.10
2023-03-26T11:23:27.147Z,1.17
2023-03-26T11:26:07.790Z,1.47
2023-03-26T11:29:03.873Z,1.03
2023-03-26T11:31:57.605Z,2.03
2023-03-26T11:34:38.155Z,1.30
2023-03-26T11:37:09.371Z,1.10
2023-03-26T11:39:46.320Z,1.30
2023-03-26T11:42:14.691Z,1.10
2023-03-26T11:44:50.646Z,0.77
2023-03-26T11:47:23.186Z,1.00
2023-03-26T11:49:51.995Z,1.83
2023-03-26T11:52:18.914Z,1.00
2023-03-26T11:54:48.674Z,0.93
2023-03-26T11:57:21.621Z,0.90
2023-03-26T11:59:57.556Z,1.00
2023-03-26T12:02:35.961Z,1.10
2023-03-26T12:05:15.177Z,0.97
2023-03-26T12:08:04.489Z,1.03
2023-03-26T12:10:39.294Z,1.33
2023-03-26T12:13:19.409Z,0.97
2023-03-26T12:15:46.193Z,0.87
2023-03-26T12:18:25.469Z,0.97
2023-03-26T12:21:05.942Z,0.87
2023-03-26T12:23:44.665Z,0.90
2023-03-26T12:26:15.618Z,0.80
2023-03-26T12:28:47.499Z,0.77
2023-03-26T12:31:18.466Z,1.00
2023-03-26T12:33:52.722Z,1.10
2023-03-26T12:36:29.452Z,1.30
2023-03-26T12:39:16.656Z,1.10
2023-03-26T12:44:42.960Z,1.37
2023-03-26T12:44:47.214Z,1.20
2023-03-26T12:47:59.070Z,1.00
2023-03-26T12:50:15.283Z,1.20
2023-03-26T12:52:48.288Z,1.57
2023-03-26T12:55:21.866Z,1.20
2023-03-26T12:58:38.565Z,1.00
2023-03-26T13:01:16.257Z,0.97
2023-03-26T13:04:35.768Z,0.90
2023-03-26T13:07:22.510Z,1.00
2023-03-26T13:10:17.075Z,1.20
2023-03-26T13:12:54.183Z,1.10
2023-03-26T13:15:24.706Z,1.10
2023-03-26T13:18:04.179Z,0.63
2023-03-26T13:20:40.306Z,1.00
2023-03-26T13:23:42.883Z,1.03
2023-03-26T13:26:40.288Z,0.93
2023-03-26T13:29:19.048Z,1.40
2023-03-26T13:31:58.999Z,0.90
2023-03-26T13:34:28.596Z,1.20
2023-03-26T13:37:13.676Z,1.17
2023-03-26T13:39:50.368Z,1.10
2023-03-26T13:42:33.877Z,0.93
2023-03-26T13:45:12.430Z,0.80
2023-03-26T13:47:49.688Z,1.17
2023-03-26T13:50:26.631Z,1.10
2023-03-26T13:52:59.659Z,1.40
2023-03-26T13:55:48.766Z,1.23
2023-03-26T13:58:38.340Z,1.40
2023-03-26T14:01:12.693Z,1.40
2023-03-26T14:04:00.811Z,1.90
2023-03-26T14:06:36.550Z,2.40
2023-03-26T14:09:24.782Z,2.10
2023-03-26T14:11:58.077Z,2.37
2023-03-26T14:14:34.388Z,1.80
2023-03-26T14:17:11.060Z,3.07
2023-03-26T14:20:02.190Z,3.90
2023-03-26T14:23:07.707Z,2.70
2023-03-26T14:25:50.607Z,2.10
2023-03-26T14:28:54.004Z,2.60
2023-03-26T14:31:42.616Z,2.73
2023-03-26T14:34:40.023Z,2.33
2023-03-26T14:37:17.322Z,1.90
2023-03-26T14:40:22.494Z,1.90
2023-03-26T14:43:27.372Z,1.70
2023-03-26T14:46:06.593Z,1.77
2023-03-26T14:49:01.247Z,1.50
2023-03-26T14:51:46.662Z,1.50
2023-03-26T14:54:17.221Z,1.60
2023-03-26T14:56:53.583Z,1.70
2023-03-26T14:59:26.338Z,1.60
2023-03-26T15:02:17.725Z,1.87
2023-03-26T15:05:03.266Z,1.90
2023-03-26T15:07:53.149Z,1.67
2023-03-26T15:10:49.886Z,1.53
2023-03-26T15:13:42.081Z,1.67
2023-03-26T15:16:17.834Z,1.40
2023-03-26T15:18:51.380Z,1.67
2023-03-26T15:21:33.349Z,1.77
2023-03-26T15:24:32.741Z,1.67
2023-03-26T15:27:30.655Z,1.70
2023-03-26T15:30:18.560Z,1.73
2023-03-26T15:33:01.533Z,1.90
2023-03-26T15:35:57.582Z,2.20
2023-03-26T15:38:52.200Z,1.80
2023-03-26T15:41:43.764Z,1.93
2023-03-26T15:44:50.879Z,1.70
2023-03-26T15:47:33.671Z,1.70
2023-03-26T15:50:16.412Z,2.30
2023-03-26T15:53:02.945Z,2.17
2023-03-26T15:55:55.214Z,2.17
2023-03-26T15:58:26.553Z,2.30
2023-03-26T16:01:10.375Z,2.30
2023-03-26T16:03:48.507Z,2.50
2023-03-26T16:06:50.282Z,2.87
2023-03-26T16:09:54.430Z,3.27
2023-03-26T16:12:27.821Z,3.40
2023-03-26T16:15:07.554Z,3.90
2023-03-26T16:18:19.332Z,3.60
2023-03-26T16:20:57.382Z,3.97
2023-03-26T16:23:29.758Z,3.80
2023-03-26T16:26:06.100Z,4.00
2023-03-26T16:28:56.520Z,3.50
2023-03-26T16:31:37.156Z,3.53
2023-03-26T16:34:05.446Z,3.60
2023-03-26T16:36:34.811Z,3.30
2023-03-26T16:39:05.074Z,3.07
2023-03-26T16:41:50.372Z,2.63
2023-03-26T16:44:33.150Z,3.17
2023-03-26T16:47:09.198Z,3.30
2023-03-26T16:49:43.705Z,3.37
2023-03-26T16:52:23.840Z,3.20
2023-03-26T16:55:07.429Z,2.93
2023-03-26T16:57:57.264Z,3.60
2023-03-26T17:00:35.899Z,4.27
2023-03-26T17:03:27.466Z,3.30
2023-03-26T17:05:55.218Z,3.53
2023-03-26T17:08:36.407Z,3.83
2023-03-26T17:11:15.992Z,3.57
2023-03-26T17:14:03.837Z,3.57
2023-03-26T17:16:34.263Z,4.13
2023-03-26T17:19:42.370Z,3.93
2023-03-26T17:22:27.992Z,3.47
2023-03-26T17:25:11.886Z,3.07
2023-03-26T17:27:51.332Z,3.23
2023-03-26T17:30:52.641Z,3.33
2023-03-26T17:33:32.891Z,3.60
2023-03-26T17:36:11.881Z,3.40
2023-03-26T17:38:45.336Z,2.67
2023-03-26T17:41:14.705Z,2.87
2023-03-26T17:43:50.869Z,2.90
2023-03-26T17:46:29.471Z,2.93
2023-03-26T17:49:17.613Z,2.90
2023-03-26T17:52:06.147Z,2.97
2023-03-26T17:54:50.682Z,2.97
2023-03-26T17:57:23.502Z,2.43
2023-03-26T17:59:53.597Z,2.67
2023-03-26T18:02:24.170Z,2.60
2023-03-26T18:04:53.824Z,2.47
2023-03-26T18:07:58.177Z,2.60
2023-03-26T18:13:47.929Z,2.57
2023-03-26T18:16:18.619Z,2.37
2023-03-26T18:18:52.212Z,2.43
2023-03-26T18:21:33.693Z,2.97
2023-03-26T18:24:02.112Z,2.67
2023-03-26T18:26:42.257Z,2.83
2023-03-26T18:29:21.450Z,2.43
2023-03-26T18:31:50.063Z,2.50
2023-03-26T18:34:20.746Z,2.90
2023-03-26T18:36:58.077Z,2.80
2023-03-26T18:39:24.772Z,2.43
2023-03-26T18:41:51.454Z,2.60
2023-03-26T18:44:18.949Z,2.30
2023-03-26T18:46:45.918Z,2.50
2023-03-26T18:49:14.243Z,2.40
2023-03-26T18:51:54.099Z,2.30
2023-03-26T18:54:23.703Z,2.60
2023-03-26T18:56:52.464Z,2.57
2023-03-26T18:59:28.416Z,2.10
2023-03-26T19:01:59.257Z,2.70
2023-03-26T19:04:27.014Z,2.43
2023-03-26T19:06:55.237Z,2.67
2023-03-26T19:09:31.688Z,2.37
2023-03-26T19:12:06.290Z,2.03
2023-03-26T19:14:37.122Z,2.70
2023-03-26T19:17:05.800Z,2.30
2023-03-26T19:19:36.976Z,1.80
2023-03-26T19:22:07.847Z,2.70
2023-03-26T19:24:34.661Z,2.50
2023-03-26T19:27:01.566Z,1.87
2023-03-26T19:29:32.101Z,2.83
2023-03-26T19:32:23.236Z,2.33
2023-03-26T19:34:53.564Z,2.63
2023-03-26T19:37:26.595Z,2.20
2023-03-26T19:39:55.570Z,2.30
2023-03-26T19:42:43.353Z,2.60
2023-03-26T19:45:21.958Z,2.73
2023-03-26T19:48:00.090Z,2.40
2023-03-26T19:50:33.878Z,2.03
2023-03-26T19:53:19.600Z,2.30
2023-03-26T19:56:12.000Z,2.10
2023-03-26T19:58:39.883Z,2.10
2023-03-26T20:01:07.035Z,2.50
2023-03-26T20:03:40.880Z,2.03
2023-03-26T20:06:12.119Z,2.10
2023-03-26T20:08:40.716Z,2.23
2023-03-26T20:11:15.159Z,2.30
2023-03-26T20:13:41.848Z,2.30
2023-03-26T20:16:29.292Z,2.03
2023-03-26T20:18:57.985Z,2.17
2023-03-26T20:21:25.571Z,1.87
2023-03-26T20:23:53.980Z,2.27
2023-03-26T20:26:22.081Z,2.47
2023-03-26T20:31:25.408Z,2.57
2023-03-26T20:33:53.526Z,2.47
2023-03-26T20:36:33.819Z,1.97
2023-03-26T20:39:06.320Z,1.93
2023-03-26T20:41:34.033Z,2.23
2023-03-26T20:44:01.155Z,2.40
2023-03-26T20:46:31.221Z,2.03
2023-03-26T20:48:59.931Z,1.80
2023-03-26T20:51:28.972Z,1.73
2023-03-26T20:53:56.153Z,2.20
2023-03-26T20:56:22.961Z,2.13
2023-03-26T20:58:54.729Z,2.00
2023-03-26T21:01:27.972Z,1.77
2023-03-26T21:03:54.930Z,2.20
2023-03-26T21:06:21.618Z,2.20
2023-03-26T21:08:48.680Z,2.03
2023-03-26T21:11:26.878Z,1.90
2023-03-26T21:14:08.195Z,2.53
2023-03-26T21:16:35.481Z,2.33
2023-03-26T21:19:03.580Z,2.20
2023-03-26T21:21:59.141Z,2.10
2023-03-26T21:24:37.118Z,1.90
2023-03-26T21:27:36.244Z,2.00
2023-03-26T21:30:06.549Z,2.23
2023-03-26T21:32:34.418Z,1.70
2023-03-26T21:35:03.494Z,2.00
2023-03-26T21:37:31.215Z,1.70
2023-03-26T21:39:59.995Z,2.10
2023-03-26T21:42:31.988Z,1.90
2023-03-26T21:44:59.063Z,1.93
2023-03-26T21:47:26.078Z,2.00
2023-03-26T21:49:54.840Z,2.10
2023-03-26T21:52:22.784Z,2.10
2023-03-26T21:54:49.780Z,2.17
2023-03-26T21:57:32.050Z,1.87
2023-03-26T22:00:16.428Z,2.03
2023-03-26T22:03:09.137Z,2.30
2023-03-26T22:05:59.943Z,2.03
2023-03-26T22:08:32.864Z,1.83
2023-03-26T22:11:00.048Z,2.10
2023-03-26T22:13:27.611Z,2.07
2023-03-26T22:15:54.664Z,2.27
2023-03-26T22:18:21.666Z,2.07
2023-03-26T22:20:49.184Z,2.27
2023-03-26T22:23:17.050Z,2.13
2023-03-26T22:25:44.139Z,2.13
2023-03-26T22:28:10.944Z,1.73
2023-03-26T22:30:37.772Z,1.97
2023-03-26T22:33:05.543Z,2.53
2023-03-26T22:35:32.362Z,2.43
2023-03-26T22:38:00.438Z,2.60
2023-03-26T22:40:28.690Z,2.37
2023-03-26T22:42:55.430Z,2.23
2023-03-26T22:45:23.100Z,2.50
2023-03-26T22:47:50.106Z,3.30
2023-03-26T22:50:16.911Z,2.83
2023-03-26T22:52:43.644Z,3.00
2023-03-26T22:55:11.794Z,2.37
2023-03-26T22:57:39.766Z,2.50
2023-03-26T23:00:19.225Z,2.23
2023-03-26T23:02:46.872Z,2.60
2023-03-26T23:05:14.854Z,2.67
2023-03-26T23:07:42.654Z,2.70
2023-03-26T23:10:11.312Z,2.43
2023-03-26T23:12:39.199Z,2.00
2023-03-26T23:15:06.571Z,1.90
2023-03-26T23:17:35.152Z,1.80
2023-03-26T23:20:06.323Z,2.00
2023-03-26T23:22:35.500Z,2.03
2023-03-26T23:25:02.404Z,2.13
2023-03-26T23:27:29.182Z,2.00
2023-03-26T23:29:56.060Z,1.90
2023-03-26T23:32:25.346Z,2.10
2023-03-26T23:34:52.536Z,1.97
2023-03-26T23:37:23.522Z,2.17
2023-03-26T23:39:51.068Z,1.60
2023-03-26T23:42:28.361Z,2.40
2023-03-26T23:44:57.275Z,2.00
2023-03-26T23:47:24.346Z,2.30
2023-03-26T23:49:51.343Z,2.07
2023-03-26T23:52:18.443Z,1.70
2023-03-26T23:54:45.818Z,2.20
2023-03-26T23:57:12.675Z,1.90
2023-03-26T23:59:41.707Z,2.40
